createdAt,value
2022-10-23T00:00:12.744Z,101044.12
2022-10-23T00:03:01.099Z,101043.84
2022-10-23T00:05:29.817Z,101044.70
2022-10-23T00:08:01.181Z,101040.73
2022-10-23T00:10:29.705Z,101042.78
2022-10-23T00:13:00.609Z,101045.92
2022-10-23T00:15:29.157Z,101053.17
2022-10-23T00:17:57.926Z,101056.39
2022-10-23T00:20:26.334Z,101053.42
2022-10-23T00:22:55.025Z,101057.30
2022-10-23T00:25:23.355Z,101055.92
2022-10-23T00:27:51.684Z,101057.56
2022-10-23T00:30:20.366Z,101055.74
2022-10-23T00:32:48.972Z,101048.70
2022-10-23T00:35:17.554Z,101046.36
2022-10-23T00:37:45.914Z,101046.23
2022-10-23T00:40:14.462Z,101045.27
2022-10-23T00:42:43.160Z,101045.20
2022-10-23T00:45:22.499Z,101045.59
2022-10-23T00:47:51.144Z,101045.41
2022-10-23T00:50:21.454Z,101047.49
2022-10-23T00:52:52.738Z,101046.86
2022-10-23T00:55:24.217Z,101043.85
2022-10-23T00:57:53.334Z,101043.27
2022-10-23T01:00:24.232Z,101043.04
2022-10-23T01:02:54.612Z,101046.91
2022-10-23T01:05:30.101Z,101049.58
2022-10-23T01:08:05.799Z,101047.20
2022-10-23T01:10:40.152Z,101050.35
2022-10-23T01:13:15.307Z,101056.36
2022-10-23T01:15:49.090Z,101063.85
2022-10-23T01:18:23.124Z,101062.39
2022-10-23T01:20:59.239Z,101067.47
2022-10-23T01:23:53.545Z,101070.67
2022-10-23T01:26:35.649Z,101068.88
2022-10-23T01:29:12.612Z,101066.21
2022-10-23T01:31:46.326Z,101063.81
2022-10-23T01:34:32.238Z,101057.40
2022-10-23T01:37:04.229Z,101053.95
2022-10-23T01:39:37.026Z,101046.02
2022-10-23T01:42:09.982Z,101042.63
2022-10-23T01:44:44.480Z,101036.84
2022-10-23T01:47:17.025Z,101034.71
2022-10-23T01:50:02.758Z,101032.67
2022-10-23T01:52:31.794Z,101031.14
2022-10-23T01:55:02.346Z,101027.58
2022-10-23T01:57:35.309Z,101017.89
2022-10-23T02:00:07.717Z,101013.36
2022-10-23T02:02:53.629Z,101015.54
2022-10-23T02:05:26.772Z,101006.63
2022-10-23T02:07:57.547Z,101002.73
2022-10-23T02:10:32.434Z,101008.60
2022-10-23T02:13:07.065Z,101013.19
2022-10-23T02:15:41.146Z,101016.23
2022-10-23T02:18:24.231Z,101017.39
2022-10-23T02:20:56.449Z,101022.66
2022-10-23T02:23:32.153Z,101023.20
2022-10-23T02:26:09.333Z,101026.35
2022-10-23T02:28:44.848Z,101028.05
2022-10-23T02:31:16.751Z,101033.64
2022-10-23T02:33:46.915Z,101042.33
2022-10-23T02:36:18.033Z,101039.64
2022-10-23T02:38:47.487Z,101030.00
2022-10-23T02:41:33.057Z,101027.98
2022-10-23T02:44:14.461Z,101033.79
2022-10-23T02:46:55.869Z,101034.27
2022-10-23T02:49:35.065Z,101035.16
2022-10-23T02:52:13.158Z,101036.83
2022-10-23T02:54:57.210Z,101036.68
2022-10-23T02:57:32.206Z,101037.84
2022-10-23T03:00:06.539Z,101045.61
2022-10-23T03:02:39.667Z,101045.86
2022-10-23T03:05:12.001Z,101048.27
2022-10-23T03:07:43.801Z,101051.46
2022-10-23T03:10:12.499Z,101050.35
2022-10-23T03:12:48.230Z,101053.19
2022-10-23T03:15:16.945Z,101053.60
2022-10-23T03:17:45.353Z,101047.73
2022-10-23T03:20:17.360Z,101047.16
2022-10-23T03:22:46.231Z,101048.83
2022-10-23T03:25:15.337Z,101050.73
2022-10-23T03:27:44.973Z,101051.72
2022-10-23T03:30:16.884Z,101054.41
2022-10-23T03:32:46.135Z,101057.09
2022-10-23T03:35:15.224Z,101060.82
2022-10-23T03:37:44.026Z,101060.05
2022-10-23T03:40:12.804Z,101061.80
2022-10-23T03:42:41.193Z,101060.20
2022-10-23T03:45:10.985Z,101062.33
2022-10-23T03:47:40.730Z,101066.23
2022-10-23T03:50:12.873Z,101068.00
2022-10-23T03:52:41.564Z,101067.36
2022-10-23T03:55:11.157Z,101065.95
2022-10-23T03:57:39.534Z,101060.91
2022-10-23T04:00:10.705Z,101065.30
2022-10-23T04:02:45.363Z,101065.11
2022-10-23T04:05:14.330Z,101063.98
2022-10-23T04:07:44.767Z,101060.48
2022-10-23T04:10:13.271Z,101057.20
2022-10-23T04:12:42.029Z,101062.65
2022-10-23T04:15:11.591Z,101064.05
2022-10-23T04:17:42.367Z,101053.15
2022-10-23T04:20:11.001Z,101056.90
2022-10-23T04:22:39.479Z,101063.19
2022-10-23T04:25:08.835Z,101070.02
2022-10-23T04:27:38.469Z,101068.09
2022-10-23T04:30:09.928Z,101076.52
2022-10-23T04:32:39.800Z,101079.66
2022-10-23T04:35:09.566Z,101076.40
2022-10-23T04:37:37.881Z,101076.79
2022-10-23T04:40:10.280Z,101076.91
2022-10-23T04:42:39.789Z,101078.44
2022-10-23T04:45:10.128Z,101076.02
2022-10-23T04:47:39.507Z,101074.78
2022-10-23T04:50:08.542Z,101071.89
2022-10-23T04:52:58.060Z,101073.20
2022-10-23T04:55:50.451Z,101074.52
2022-10-23T04:58:31.506Z,101077.04
2022-10-23T05:01:00.245Z,101075.84
2022-10-23T05:03:29.885Z,101078.73
2022-10-23T05:06:01.517Z,101081.51
2022-10-23T05:08:45.022Z,101084.66
2022-10-23T05:11:32.418Z,101083.33
2022-10-23T05:14:05.840Z,101084.81
2022-10-23T05:16:39.254Z,101086.65
2022-10-23T05:19:12.564Z,101085.72
2022-10-23T05:21:41.346Z,101086.42
2022-10-23T05:24:12.429Z,101086.35
2022-10-23T05:26:40.828Z,101082.66
2022-10-23T05:29:09.900Z,101081.32
2022-10-23T05:31:38.500Z,101083.36
2022-10-23T05:34:13.543Z,101081.83
2022-10-23T05:36:46.258Z,101081.32
2022-10-23T05:39:16.681Z,101079.57
2022-10-23T05:41:45.569Z,101072.10
2022-10-23T05:44:23.183Z,101070.02
2022-10-23T05:47:04.437Z,101069.15
2022-10-23T05:49:55.755Z,101077.96
2022-10-23T05:52:47.428Z,101077.60
2022-10-23T05:55:36.139Z,101076.48
2022-10-23T05:58:32.030Z,101077.38
2022-10-23T06:01:22.465Z,101072.69
2022-10-23T06:04:00.274Z,101072.69
2022-10-23T06:06:41.782Z,101077.89
2022-10-23T06:09:13.528Z,101082.36
2022-10-23T06:11:42.420Z,101079.03
2022-10-23T06:14:15.076Z,101077.92
2022-10-23T06:16:43.838Z,101081.70
2022-10-23T06:19:12.839Z,101082.31
2022-10-23T06:21:41.911Z,101083.11
2022-10-23T06:24:15.633Z,101080.33
2022-10-23T06:26:52.236Z,101088.48
2022-10-23T06:29:34.108Z,101092.02
2022-10-23T06:32:02.834Z,101090.71
2022-10-23T06:34:31.925Z,101090.03
2022-10-23T06:37:03.138Z,101093.33
2022-10-23T06:39:51.384Z,101097.07
2022-10-23T06:42:30.890Z,101104.82
2022-10-23T06:45:03.377Z,101104.34
2022-10-23T06:47:49.146Z,101102.00
2022-10-23T06:50:42.553Z,101105.15
2022-10-23T06:53:14.203Z,101102.94
2022-10-23T06:55:53.050Z,101101.52
2022-10-23T06:58:25.267Z,101099.25
2022-10-23T07:01:06.578Z,101104.98
2022-10-23T07:03:35.443Z,101106.00
2022-10-23T07:06:07.700Z,101108.45
2022-10-23T07:08:37.711Z,101110.98
2022-10-23T07:11:12.713Z,101110.34
2022-10-23T07:13:42.088Z,101110.21
2022-10-23T07:16:18.011Z,101113.61
2022-10-23T07:18:47.841Z,101112.86
2022-10-23T07:21:30.191Z,101112.45
2022-10-23T07:24:08.241Z,101111.98
2022-10-23T07:26:37.154Z,101113.90
2022-10-23T07:29:06.945Z,101116.08
2022-10-23T07:31:35.951Z,101117.66
2022-10-23T07:34:23.064Z,101118.66
2022-10-23T07:37:02.488Z,101117.27
2022-10-23T07:43:55.134Z,101127.34
2022-10-23T07:46:24.829Z,101131.10
2022-10-23T07:48:54.231Z,101124.27
2022-10-23T07:51:23.375Z,101124.25
2022-10-23T07:53:56.565Z,101125.27
2022-10-23T08:01:27.627Z,101123.44
2022-10-23T08:03:56.160Z,101126.74
2022-10-23T08:06:25.592Z,101128.30
2022-10-23T08:08:54.243Z,101132.02
2022-10-23T08:29:09.130Z,101135.06
2022-10-23T08:31:38.093Z,101140.24
2022-10-23T08:34:22.119Z,101144.13
2022-10-23T08:36:51.459Z,101146.92
2022-10-23T08:39:20.417Z,101142.58
2022-10-23T08:42:21.162Z,101142.33
2022-10-23T08:44:59.027Z,101138.95
2022-10-23T08:47:35.756Z,101132.66
2022-10-23T08:50:34.706Z,101131.23
2022-10-23T08:53:12.070Z,101130.79
2022-10-23T08:55:45.121Z,101132.70
2022-10-23T08:58:23.067Z,101144.75
2022-10-23T09:00:52.415Z,101149.94
2022-10-23T09:03:22.102Z,101149.74
2022-10-23T09:06:05.278Z,101146.79
2022-10-23T09:08:44.631Z,101153.61
2022-10-23T09:11:22.085Z,101155.80
2022-10-23T09:14:09.942Z,101152.42
2022-10-23T09:16:50.665Z,101155.31
2022-10-23T09:19:24.115Z,101159.59
2022-10-23T09:21:53.116Z,101159.77
2022-10-23T09:24:23.963Z,101161.83
2022-10-23T09:26:54.268Z,101163.16
2022-10-23T09:29:26.493Z,101162.05
2022-10-23T09:31:57.085Z,101157.96
2022-10-23T09:34:28.016Z,101165.31
2022-10-23T09:37:02.541Z,101167.26
2022-10-23T09:39:33.552Z,101172.05
2022-10-23T09:42:14.496Z,101172.83
2022-10-23T09:44:51.545Z,101176.06
2022-10-23T09:47:25.035Z,101178.77
2022-10-23T09:49:55.811Z,101177.70
2022-10-23T09:52:29.763Z,101176.51
2022-10-23T09:55:01.297Z,101177.86
2022-10-23T09:57:32.427Z,101174.92
2022-10-23T10:00:03.944Z,101170.86
2022-10-23T10:02:41.673Z,101164.66
2022-10-23T10:05:41.498Z,101169.08
2022-10-23T10:08:22.344Z,101173.19
2022-10-23T10:10:53.790Z,101170.60
2022-10-23T10:13:38.961Z,101170.98
2022-10-23T10:16:13.887Z,101171.92
2022-10-23T10:18:49.721Z,101172.30
2022-10-23T10:21:22.957Z,101168.52
2022-10-23T10:24:00.874Z,101169.20
2022-10-23T10:26:40.019Z,101161.95
2022-10-23T10:29:25.104Z,101161.09
2022-10-23T10:32:12.189Z,101159.63
2022-10-23T10:34:49.272Z,101163.91
2022-10-23T10:37:27.667Z,101161.20
2022-10-23T10:40:02.605Z,101154.64
2022-10-23T10:42:49.242Z,101157.69
2022-10-23T10:45:30.741Z,101158.25
2022-10-23T10:48:20.805Z,101157.45
2022-10-23T10:51:12.425Z,101162.20
2022-10-23T10:54:01.405Z,101162.30
2022-10-23T10:56:34.881Z,101159.74
2022-10-23T10:59:11.125Z,101160.00
2022-10-23T11:01:45.667Z,101162.38
2022-10-23T11:04:22.039Z,101156.37
2022-10-23T11:06:53.978Z,101153.86
2022-10-23T11:09:25.568Z,101151.67
2022-10-23T11:11:54.793Z,101149.04
2022-10-23T11:14:24.981Z,101148.59
2022-10-23T11:16:57.660Z,101149.82
2022-10-23T11:19:29.924Z,101150.15
2022-10-23T11:22:04.626Z,101152.46
2022-10-23T11:24:58.106Z,101151.11
2022-10-23T11:27:37.438Z,101146.45
2022-10-23T11:30:23.533Z,101148.77
2022-10-23T11:33:35.370Z,101144.11
2022-10-23T11:36:15.722Z,101143.02
2022-10-23T11:38:47.410Z,101143.61
2022-10-23T11:41:25.373Z,101145.83
2022-10-23T11:44:02.938Z,101146.44
2022-10-23T11:46:36.675Z,101150.45
2022-10-23T11:49:19.193Z,101149.52
2022-10-23T11:51:58.987Z,101142.94
2022-10-23T11:54:27.550Z,101147.27
2022-10-23T11:57:11.999Z,101144.35
2022-10-23T11:59:54.872Z,101143.45
2022-10-23T12:02:31.298Z,101142.33
2022-10-23T12:05:04.234Z,101139.54
2022-10-23T12:07:36.698Z,101139.48
2022-10-23T12:10:07.892Z,101131.46
2022-10-23T12:12:40.341Z,101128.14
2022-10-23T12:15:19.664Z,101126.65
2022-10-23T12:17:50.291Z,101122.55
2022-10-23T12:20:44.519Z,101124.13
2022-10-23T12:23:35.753Z,101121.17
2022-10-23T12:26:20.489Z,101120.25
2022-10-23T12:29:08.161Z,101124.42
2022-10-23T12:31:48.123Z,101123.63
2022-10-23T12:34:34.599Z,101121.75
2022-10-23T12:37:22.507Z,101122.83
2022-10-23T12:39:55.209Z,101115.85
2022-10-23T12:42:26.362Z,101112.53
2022-10-23T12:45:03.613Z,101114.96
2022-10-23T12:47:32.635Z,101117.19
2022-10-23T12:50:01.156Z,101119.71
2022-10-23T12:52:38.979Z,101122.92
2022-10-23T12:55:14.580Z,101122.62
2022-10-23T12:57:45.508Z,101123.92
2022-10-23T13:00:18.411Z,101120.14
2022-10-23T13:02:57.069Z,101119.16
2022-10-23T13:05:26.819Z,101122.36
2022-10-23T13:07:57.763Z,101124.58
2022-10-23T13:10:35.838Z,101123.28
2022-10-23T13:13:07.762Z,101119.07
2022-10-23T13:15:40.801Z,101109.81
2022-10-23T13:18:11.075Z,101107.25
2022-10-23T13:20:56.417Z,101108.62
2022-10-23T13:23:30.498Z,101110.45
2022-10-23T13:26:01.139Z,101108.09
2022-10-23T13:28:41.879Z,101109.65
2022-10-23T13:31:35.461Z,101105.70
2022-10-23T13:34:17.692Z,101107.67
2022-10-23T13:37:02.983Z,101112.98
2022-10-23T13:39:34.087Z,101110.70
2022-10-23T13:42:13.207Z,101109.71
2022-10-23T13:44:42.680Z,101110.77
2022-10-23T13:47:14.261Z,101116.09
2022-10-23T13:49:43.004Z,101116.66
2022-10-23T13:52:14.375Z,101111.95
2022-10-23T13:54:43.200Z,101111.55
2022-10-23T13:57:14.939Z,101116.42
2022-10-23T13:59:43.432Z,101111.57
2022-10-23T14:02:19.465Z,101103.33
2022-10-23T14:04:48.572Z,101099.14
2022-10-23T14:07:17.678Z,101096.46
2022-10-23T14:09:46.187Z,101094.00
2022-10-23T14:12:14.586Z,101092.55
2022-10-23T14:14:43.001Z,101093.19
2022-10-23T14:17:11.693Z,101088.27
2022-10-23T14:19:44.311Z,101087.14
2022-10-23T14:22:12.833Z,101085.19
2022-10-23T14:24:44.201Z,101087.06
2022-10-23T14:27:18.182Z,101085.66
2022-10-23T14:29:46.570Z,101084.73
2022-10-23T14:32:14.951Z,101084.13
2022-10-23T14:34:49.821Z,101085.73
2022-10-23T14:37:18.981Z,101094.02
2022-10-23T14:39:50.211Z,101098.95
2022-10-23T14:42:18.954Z,101101.56
2022-10-23T14:44:50.301Z,101101.09
2022-10-23T14:47:20.124Z,101105.48
2022-10-23T14:49:52.488Z,101109.76
2022-10-23T14:52:20.963Z,101105.96
2022-10-23T14:54:52.130Z,101105.17
2022-10-23T14:57:21.525Z,101101.70
2022-10-23T14:59:54.024Z,101105.16
2022-10-23T15:02:22.462Z,101101.11
2022-10-23T15:04:51.029Z,101100.55
2022-10-23T15:07:19.527Z,101103.88
2022-10-23T15:09:50.063Z,101105.14
2022-10-23T15:12:19.144Z,101098.66
2022-10-23T15:14:47.589Z,101089.14
2022-10-23T15:17:18.471Z,101084.17
2022-10-23T15:19:49.711Z,101086.36
2022-10-23T15:22:19.133Z,101082.73
2022-10-23T15:24:52.062Z,101082.20
2022-10-23T15:27:20.968Z,101073.86
2022-10-23T15:29:50.314Z,101075.48
2022-10-23T15:32:19.131Z,101077.87
2022-10-23T15:34:51.536Z,101079.58
2022-10-23T15:37:39.659Z,101080.24
2022-10-23T15:40:14.293Z,101084.39
2022-10-23T15:43:00.305Z,101084.19
2022-10-23T15:45:57.057Z,101085.64
2022-10-23T15:48:25.725Z,101089.86
2022-10-23T15:50:58.862Z,101086.83
2022-10-23T15:53:27.515Z,101083.99
2022-10-23T15:56:01.939Z,101085.59
2022-10-23T15:58:35.516Z,101089.77
2022-10-23T16:01:05.857Z,101095.07
2022-10-23T16:03:38.371Z,101098.81
2022-10-23T16:06:09.872Z,101098.34
2022-10-23T16:11:38.587Z,101092.00
2022-10-23T16:14:09.703Z,101089.77
2022-10-23T16:16:38.491Z,101089.68
2022-10-23T16:19:07.020Z,101087.86
2022-10-23T16:21:36.453Z,101084.66
2022-10-23T16:24:34.925Z,101082.43
2022-10-23T16:27:03.587Z,101092.87
2022-10-23T16:29:35.048Z,101091.56
2022-10-23T16:32:11.194Z,101089.59
2022-10-23T16:34:41.517Z,101086.59
2022-10-23T16:37:10.089Z,101090.95
2022-10-23T16:40:27.160Z,101096.84
2022-10-23T16:43:14.968Z,101102.14
2022-10-23T16:45:59.554Z,101102.83
2022-10-23T16:48:28.085Z,101099.81
2022-10-23T16:50:56.642Z,101099.63
2022-10-23T16:53:28.619Z,101096.71
2022-10-23T16:55:57.654Z,101102.38
2022-10-23T16:58:26.964Z,101101.43
2022-10-23T17:01:01.520Z,101104.29
2022-10-23T17:03:30.640Z,101103.05
2022-10-23T17:06:03.423Z,101105.85
2022-10-23T17:08:35.563Z,101107.29
2022-10-23T17:11:07.286Z,101103.90
2022-10-23T17:13:38.557Z,101103.46
2022-10-23T17:16:10.278Z,101104.62
2022-10-23T17:18:42.952Z,101102.82
2022-10-23T17:21:13.790Z,101109.95
2022-10-23T17:23:42.731Z,101110.57
2022-10-23T17:26:13.512Z,101111.14
2022-10-23T17:28:42.841Z,101116.85
2022-10-23T17:31:15.760Z,101125.70
2022-10-23T17:34:03.403Z,101124.70
2022-10-23T17:36:34.304Z,101125.27
2022-10-23T17:39:46.940Z,101122.77
2022-10-23T17:42:24.755Z,101124.11
2022-10-23T17:44:58.923Z,101120.67
2022-10-23T17:47:27.599Z,101117.21
2022-10-23T17:49:58.122Z,101113.98
2022-10-23T17:52:30.115Z,101117.63
2022-10-23T17:54:58.763Z,101109.89
2022-10-23T17:57:29.309Z,101102.21
2022-10-23T17:59:58.098Z,101106.40
2022-10-23T18:02:36.655Z,101112.41
2022-10-23T18:05:14.152Z,101110.00
2022-10-23T18:08:16.782Z,101107.09
2022-10-23T18:10:48.081Z,101106.53
2022-10-23T18:13:32.408Z,101102.79
2022-10-23T18:16:05.839Z,101091.25
2022-10-23T18:18:53.691Z,101099.63
2022-10-23T18:21:24.682Z,101095.82
2022-10-23T18:24:01.577Z,101094.16
2022-10-23T18:26:42.814Z,101091.34
2022-10-23T18:29:20.192Z,101084.84
2022-10-23T18:31:49.249Z,101083.27
2022-10-23T18:34:20.080Z,101082.56
2022-10-23T18:36:49.858Z,101087.67
2022-10-23T18:39:21.801Z,101082.61
2022-10-23T18:41:52.502Z,101079.59
2022-10-23T18:44:22.557Z,101079.30
2022-10-23T18:46:51.888Z,101077.19
2022-10-23T18:49:20.652Z,101072.85
2022-10-23T18:51:50.060Z,101070.08
2022-10-23T18:54:20.437Z,101068.02
2022-10-23T18:56:49.540Z,101071.52
2022-10-23T18:59:19.780Z,101073.58
2022-10-23T19:01:48.482Z,101075.02
2022-10-23T19:04:18.117Z,101068.71
2022-10-23T19:06:48.498Z,101066.17
2022-10-23T19:09:17.815Z,101061.33
2022-10-23T19:11:46.502Z,101056.14
2022-10-23T19:14:15.630Z,101058.37
2022-10-23T19:17:00.129Z,101055.41
2022-10-23T19:19:34.274Z,101054.12
2022-10-23T19:22:04.347Z,101051.69
2022-10-23T19:24:37.693Z,101044.20
2022-10-23T19:27:06.793Z,101037.48
2022-10-23T19:29:37.532Z,101031.38
2022-10-23T19:32:06.849Z,101029.02
2022-10-23T19:34:35.269Z,101021.86
2022-10-23T19:37:04.002Z,101016.90
2022-10-23T19:39:32.589Z,101015.81
2022-10-23T19:42:01.056Z,101014.58
2022-10-23T19:44:29.622Z,101012.60
2022-10-23T19:46:58.008Z,101014.13
2022-10-23T19:49:26.516Z,101013.66
2022-10-23T19:51:55.026Z,101010.95
2022-10-23T19:54:23.501Z,101010.27
2022-10-23T19:56:52.060Z,101014.22
2022-10-23T19:59:20.436Z,101014.16
2022-10-23T20:01:49.422Z,101009.83
2022-10-23T20:04:19.026Z,101011.33
2022-10-23T20:06:47.844Z,101007.61
2022-10-23T20:09:16.588Z,101009.40
2022-10-23T20:11:45.429Z,101003.29
2022-10-23T20:14:14.794Z,101001.90
2022-10-23T20:16:45.707Z,100995.02
2022-10-23T20:21:50.080Z,100990.00
2022-10-23T20:24:20.096Z,100990.54
2022-10-23T20:26:51.391Z,100992.44
2022-10-23T20:29:20.675Z,100997.05
2022-10-23T20:31:49.168Z,100999.75
2022-10-23T20:34:19.030Z,100997.05
2022-10-23T20:36:49.705Z,100999.36
2022-10-23T20:39:20.155Z,101002.46
2022-10-23T20:41:48.770Z,101004.23
2022-10-23T20:44:18.707Z,101004.64
2022-10-23T20:46:47.872Z,100999.98
2022-10-23T20:49:16.994Z,101000.73
2022-10-23T20:51:51.373Z,101001.21
2022-10-23T20:54:21.282Z,101000.44
2022-10-23T20:57:01.749Z,101006.45
2022-10-23T20:59:30.192Z,101008.80
2022-10-23T21:01:58.700Z,101004.70
2022-10-23T21:04:28.420Z,101002.23
2022-10-23T21:07:09.375Z,101000.16
2022-10-23T21:09:39.564Z,100998.58
2022-10-23T21:12:08.548Z,100993.11
2022-10-23T21:14:37.570Z,100981.86
2022-10-23T21:17:07.904Z,100979.80
2022-10-23T21:19:36.317Z,100978.40
2022-10-23T21:22:04.731Z,100980.17
2022-10-23T21:24:33.309Z,100982.52
2022-10-23T21:27:04.022Z,100983.14
2022-10-23T21:29:32.413Z,100987.19
2022-10-23T21:32:01.091Z,100990.91
2022-10-23T21:34:30.083Z,100984.68
2022-10-23T21:37:14.667Z,100982.66
2022-10-23T21:39:45.644Z,100986.13
2022-10-23T21:42:14.475Z,100989.36
2022-10-23T21:44:43.901Z,100988.36
2022-10-23T21:47:12.495Z,100989.79
2022-10-23T21:49:40.886Z,100986.45
2022-10-23T21:52:09.423Z,100984.70
2022-10-23T21:54:37.870Z,100983.30
2022-10-23T21:57:13.887Z,100980.09
2022-10-23T21:59:42.264Z,100977.68
2022-10-23T22:02:10.801Z,100976.85
2022-10-23T22:04:40.496Z,100975.44
2022-10-23T22:07:14.154Z,100970.81
2022-10-23T22:13:00.374Z,100958.91
2022-10-23T22:15:29.071Z,100953.08
2022-10-23T22:17:59.168Z,100953.59
2022-10-23T22:20:27.657Z,100956.37
2022-10-23T22:22:55.976Z,100959.31
2022-10-23T22:25:24.343Z,100955.48
2022-10-23T22:27:52.750Z,100950.64
2022-10-23T22:30:21.092Z,100947.01
2022-10-23T22:32:49.428Z,100944.10
2022-10-23T22:35:18.314Z,100946.19
2022-10-23T22:37:46.755Z,100945.00
2022-10-23T22:40:15.378Z,100940.10
2022-10-23T22:42:43.955Z,100942.91
2022-10-23T22:45:12.552Z,100946.58
2022-10-23T22:47:40.905Z,100949.27
2022-10-23T22:50:09.961Z,100946.74
2022-10-23T22:52:38.284Z,100945.14
2022-10-23T22:55:09.773Z,100950.69
2022-10-23T22:57:38.160Z,100952.75
2022-10-23T23:00:08.953Z,100946.64
2022-10-23T23:02:37.386Z,100941.67
2022-10-23T23:05:09.773Z,100941.44
2022-10-23T23:07:38.171Z,100945.27
2022-10-23T23:10:07.564Z,100942.15
2022-10-23T23:12:37.337Z,100941.99
2022-10-23T23:15:07.904Z,100943.41
2022-10-23T23:17:36.242Z,100944.29
2022-10-23T23:20:06.054Z,100934.90
2022-10-23T23:22:34.692Z,100933.54
2022-10-23T23:25:03.256Z,100932.48
2022-10-23T23:27:31.638Z,100936.70
2022-10-23T23:29:59.950Z,100937.80
2022-10-23T23:32:28.961Z,100942.00
2022-10-23T23:35:00.236Z,100935.77
2022-10-23T23:37:28.845Z,100936.23
2022-10-23T23:40:10.352Z,100937.53
2022-10-23T23:42:38.802Z,100934.39
2022-10-23T23:45:14.567Z,100927.60
2022-10-23T23:47:43.784Z,100924.36
2022-10-23T23:50:12.560Z,100912.95
2022-10-23T23:52:40.879Z,100918.80
2022-10-23T23:55:09.993Z,100922.59
2022-10-23T23:57:38.423Z,100923.23
